• Join FlightAware (Why Join?)
  • Login
  • US Flag 
05:26PM EDT


 

Airport Tracker/Info


-or-


 

Live Flight TrackerFlight Track Log ✈ N620ZJ ✈ 19-Sep-2013 ✈ KHQZ - KTEX

Flight Track Log - Related Links

Times and Time Zones

All times are in EDT time to prevent confusion due to time zone crossing. See the N620ZJ flight status page for this flight to view local times or setup timezone preferences in your user account.

Time Position Orientation Groundspeed Altitude Reporting Facility
EDT Latitude Longitude Course Direction KTS MPH feet Rate Location/Type
02:51PM 34.2144 -99.0736 304° West 150 173 7,900  Level Fort Worth Center
02:52PM 34.2431 -99.1244 304° West 154 177 7,600 -300 Descending Fort Worth Center
02:53PM 34.2717 -99.1628 312° West 157 181 7,300 -300 Descending Fort Worth Center
02:54PM 34.3003 -99.2061 309° West 155 178 7,000 -300 Descending Fort Worth Center
02:55PM 34.3142 -99.2489 291° West 151 174 6,700 -300 Descending Fort Worth Center
02:56PM 34.3364 -99.2972 299° West 151 174 6,500 -180 Descending Fort Worth Center
02:57PM 34.3506 -99.3378 293° West 146 168 6,400 -60 Descending Fort Worth Center
02:58PM 34.3686 -99.3811 297° West 140 161 6,400  Level Fort Worth Center
02:59PM 34.3847 -99.4217 296° West 139 160 6,400  Level Fort Worth Center
03:00PM 34.3983 -99.4697 289° West 137 158 6,400  Level Fort Worth Center
03:01PM 34.4144 -99.5106 296° West 136 157 6,400  Level Fort Worth Center
03:02PM 34.4283 -99.5536 291° West 138 159 6,400  Level Fort Worth Center
03:03PM 34.4486 -99.5919 303° West 137 158 6,400  Level Fort Worth Center
03:04PM 34.4625 -99.6350 291° West 136 157 6,400  Level Fort Worth Center
03:05PM 34.4783 -99.6808 293° West 138 159 6,400  Level Fort Worth Center
03:06PM 34.4964 -99.7217 298° West 139 160 6,400  Level Fort Worth Center
03:07PM 34.5122 -99.7675 293° West 140 161 6,400  Level Fort Worth Center
03:08PM 34.5281 -99.8081 295° West 139 160 6,400  Level Fort Worth Center
03:09PM 34.5439 -99.8514 294° West 136 157 6,400  Level Fort Worth Center
03:10PM 34.5597 -99.8897 297° West 134 154 6,400  Level Fort Worth Center
03:12PM 34.5797 -99.9356 298° West 141 162 6,400  Level Fort Worth Center
03:13PM 34.5956 -99.9739 297° West 136 157 6,400  Level Fort Worth Center
03:14PM 34.6114 -100.0200 293° West 136 157 6,400  Level Fort Worth Center
03:14PM 34.6272 -100.0536 300° West 133 153 6,400  Level Albuquerque Center
03:16PM 34.6408 -100.0869 296° West 133 153 6,400  Level Albuquerque Center
03:18PM 34.7600 -99.9942 33° Northeast 145 167 6,400  Level Fort Worth Center
03:19PM 34.8000 -99.9775 19° North 150 173 6,400  Level Fort Worth Center
03:20PM 34.8400 -99.9611 19° North 150 173 6,400  Level Fort Worth Center
03:21PM 34.8819 -99.9497 13° North 150 173 6,500  Climbing Fort Worth Center
03:22PM 34.9258 -99.9483 North 145 167 6,500 -240 Level Fort Worth Center
03:23PM 34.9672 -99.9625 344° North 145 167 6,100 -360 Descending Fort Worth Center
03:24PM 34.9808 -100.0108 289° West 133 153 5,800 -300 Descending Fort Worth Center
03:25PM 35.0008 -100.0469 304° West 133 153 5,500 120 Descending Fort Worth Center
03:25PM 35.0100 -100.0697 296° West 136 157 6,000 300 Climbing Albuquerque Center
03:26PM 35.0236 -100.1219 288° West 137 158 6,000  Level Albuquerque Center
03:27PM 35.0386 -100.1636 294° West 134 154 6,000 120 Level Albuquerque Center
03:28PM 35.0578 -100.1928 309° West 117 135 6,300 240 Climbing Albuquerque Center
03:29PM 35.0742 -100.2292 299° West 121 139 6,600 120 Climbing Albuquerque Center
03:30PM 35.0894 -100.2692 295° West 126 145 6,600 60 Level Albuquerque Center
03:31PM 35.1075 -100.3164 295° West 128 147 6,800 180 Climbing Albuquerque Center
03:32PM 35.1242 -100.3533 299° West 126 145 7,000 240 Climbing Albuquerque Center
03:33PM 35.1400 -100.3917 297° West 126 145 7,300 240 Climbing Albuquerque Center
03:35PM 35.1550 -100.4283 297° West 124 143 7,600 240 Climbing Albuquerque Center
03:36PM 35.1703 -100.4647 297° West 122 140 7,800 240 Climbing Albuquerque Center
03:37PM 35.1861 -100.5014 298° West 122 140 8,100 240 Climbing Albuquerque Center
03:38PM 35.2053 -100.5458 298° West 123 142 8,400 240 Climbing Albuquerque Center
03:39PM 35.2197 -100.5806 297° West 119 137 8,700 240 Climbing Albuquerque Center
03:40PM 35.2325 -100.6181 293° West 119 137 8,900 240 Climbing Albuquerque Center
03:41PM 35.2497 -100.6564 299° West 123 142 9,200 300 Climbing Albuquerque Center
03:42PM 35.2653 -100.6928 298° West 123 142 9,600 300 Climbing Albuquerque Center
03:43PM 35.2789 -100.7292 295° West 121 139 9,900 360 Climbing Albuquerque Center
03:44PM 35.2950 -100.7736 294° West 120 138 10,400 240 Climbing Albuquerque Center
03:45PM 35.3089 -100.8117 294° West 121 139 10,500  Climbing Albuquerque Center
03:46PM 35.3217 -100.8544 290° West 127 146 10,500  Level Albuquerque Center
03:47PM 35.3392 -100.8989 296° West 136 157 10,500  Level Albuquerque Center
03:48PM 35.3575 -100.9428 297° West 141 162 10,500 -60 Level Albuquerque Center
03:49PM 35.3761 -100.9953 294° West 142 163 10,400 -60 Descending Albuquerque Center
03:50PM 35.3908 -101.0389 293° West 141 162 10,400  Level Albuquerque Center
03:51PM 35.4056 -101.0814 293° West 138 159 10,500  Climbing Albuquerque Center
03:52PM 35.4206 -101.1247 293° West 138 159 10,400 -60 Descending Albuquerque Center
03:53PM 35.4342 -101.1675 291° West 137 158 10,400  Level Albuquerque Center
03:54PM 35.4506 -101.2100 295° West 137 158 10,500  Climbing Albuquerque Center
03:55PM 35.4703 -101.2603 296° West 137 158 10,500  Level Albuquerque Center
03:56PM 35.4872 -101.3003 297° West 135 155 10,500  Level Albuquerque Center
03:57PM 35.5044 -101.3411 297° West 135 155 10,500  Level Albuquerque Center
03:58PM 35.5217 -101.3803 298° West 133 153 10,500  Level Albuquerque Center
03:59PM 35.5383 -101.4194 298° West 131 151 10,600  Climbing Albuquerque Center
04:00PM 35.5544 -101.4603 296° West 132 152 10,600  Level Albuquerque Center
04:01PM 35.5750 -101.5092 297° West 134 154 10,600 -120 Level Albuquerque Center
04:02PM 35.5919 -101.5500 297° West 134 154 10,400 -120 Descending Albuquerque Center
04:03PM 35.6164 -101.5842 311° West 134 154 10,400 60 Level Albuquerque Center
04:04PM 35.6389 -101.6208 307° West 135 155 10,600  Climbing Albuquerque Center
04:06PM 35.6594 -101.6583 304° West 133 153 10,500 -60 Descending Albuquerque Center
04:07PM 35.6842 -101.7031 304° West 132 152 10,500  Level Albuquerque Center
04:08PM 35.7083 -101.7372 311° West 133 153 10,600  Climbing Albuquerque Center
04:09PM 35.7308 -101.7739 307° West 134 154 10,600  Level Albuquerque Center
04:10PM 35.7544 -101.8100 309° West 135 155 10,600 -60 Level Albuquerque Center
04:11PM 35.7764 -101.8478 306° West 136 157 10,500  Descending Albuquerque Center
04:12PM 35.7997 -101.8856 307° West 138 159 10,600  Climbing Albuquerque Center
04:13PM 35.8261 -101.9306 306° West 137 158 10,500 -60 Descending Albuquerque Center
04:14PM 35.8508 -101.9661 311° West 137 158 10,500  Level Albuquerque Center
04:15PM 35.8725 -102.0033 306° West 136 157 10,600  Climbing Albuquerque Center
04:16PM 35.8842 -102.0497 287° West 140 161 10,500  Descending Albuquerque Center
04:17PM 35.8967 -102.0942 289° West 137 158 10,600  Climbing Albuquerque Center
04:18PM 35.9147 -102.1428 295° West 132 152 10,600  Level Albuquerque Center
04:19PM 35.9300 -102.1861 294° West 137 158 10,600  Level Albuquerque Center
04:20PM 35.9464 -102.2308 294° West 142 163 10,600  Level Albuquerque Center
04:21PM 35.9553 -102.2769 283° West 140 161 10,600 -60 Level Albuquerque Center
04:22PM 35.9731 -102.3203 297° West 140 161 10,500 -60 Descending Albuquerque Center
04:23PM 35.9894 -102.3633 295° West 140 161 10,500  Level Albuquerque Center
04:24PM 36.0114 -102.4119 299° West 137 158 10,500  Level Albuquerque Center
04:25PM 36.0286 -102.4542 297° West 137 158 10,500  Level Albuquerque Center
04:26PM 36.0444 -102.4972 294° West 137 158 10,500  Level Albuquerque Center
04:27PM 36.0614 -102.5397 296° West 139 160 10,500  Level Albuquerque Center
04:28PM 36.0783 -102.5817 297° West 138 159 10,500  Level Albuquerque Center
04:29PM 36.0942 -102.6250 294° West 138 159 10,500  Level Albuquerque Center
04:30PM 36.1128 -102.6764 294° West 137 158 10,600  Climbing Albuquerque Center
04:31PM 36.1222 -102.7228 284° West 138 159 10,600 -60 Level Albuquerque Center
04:32PM 36.1331 -102.7678 287° West 138 159 10,500 -60 Descending Albuquerque Center
04:33PM 36.1464 -102.8122 290° West 139 160 10,500  Level Albuquerque Center
04:34PM 36.1564 -102.8575 285° West 138 159 10,500  Level Albuquerque Center
04:36PM 36.1706 -102.9086 289° West 137 158 10,600  Climbing Albuquerque Center
04:37PM 36.1817 -102.9547 287° West 138 159 10,600  Level Albuquerque Center
04:38PM 36.1942 -103.0022 288° West 143 165 10,600  Level Albuquerque Center
04:39PM 36.2056 -103.0486 287° West 141 162 10,600 -60 Level Albuquerque Center
04:40PM 36.2178 -103.0944 288° West 141 162 10,500  Descending Albuquerque Center
04:41PM 36.2281 -103.1386 286° West 136 157 10,600  Climbing Albuquerque Center
04:42PM 36.2417 -103.1917 288° West 136 157 10,500  Descending Albuquerque Center
04:43PM 36.2533 -103.2358 288° West 135 155 10,600  Climbing Albuquerque Center
04:44PM 36.2647 -103.2842 286° West 140 161 10,600  Level Albuquerque Center
04:45PM 36.2764 -103.3303 287° West 141 162 10,600  Level Albuquerque Center
04:46PM 36.2864 -103.3764 285° West 140 161 10,600  Level Albuquerque Center
04:47PM 36.2969 -103.4214 286° West 137 158 10,600  Level Albuquerque Center
04:48PM 36.3100 -103.4753 287° West 139 160 10,600 -60 Level Albuquerque Center
04:49PM 36.3192 -103.5219 284° West 137 158 10,500 -60 Descending Albuquerque Center
04:50PM 36.3219 -103.5686 274° West 137 158 10,500  Level Albuquerque Center
04:51PM 36.3347 -103.6147 289° West 137 158 10,600  Climbing Albuquerque Center
04:52PM 36.3439 -103.6611 284° West 138 159 10,600 -60 Level Albuquerque Center
04:53PM 36.3506 -103.7094 280° West 141 162 10,500  Descending Albuquerque Center
04:54PM 36.3586 -103.7575 282° West 141 162 10,600  Climbing Albuquerque Center
04:55PM 36.3686 -103.8131 283° West 141 162 10,600 -60 Level Albuquerque Center
04:56PM 36.3767 -103.8597 282° West 140 161 10,500 -120 Descending Albuquerque Center
04:57PM 36.3944 -103.9061 295° West 143 165 10,400  Descending Albuquerque Center
04:58PM 36.4033 -103.9528 283° West 140 161 10,600 240 Climbing Albuquerque Center
04:59PM 36.4119 -103.9975 283° West 135 155 10,900 240 Climbing Albuquerque Center
05:00PM 36.4253 -104.0397 291° West 132 152 11,200 240 Climbing Albuquerque Center
05:01PM 36.4356 -104.0800 288° West 126 145 11,500 300 Climbing Albuquerque Center
05:02PM 36.4475 -104.1294 287° West 127 146 11,900 300 Climbing Albuquerque Center
05:03PM 36.4581 -104.1714 287° West 127 146 12,200 240 Climbing Albuquerque Center
05:04PM 36.4689 -104.2139 288° West 128 147 12,500 180 Climbing Albuquerque Center
05:05PM 36.4800 -104.2536 289° West 124 143 12,600  Climbing Albuquerque Center
05:07PM 36.4911 -104.2975 287° West 129 148 12,600  Level Albuquerque Center
05:08PM 36.5033 -104.3422 289° West 134 154 12,600 -60 Level Albuquerque Center
05:09PM 36.5153 -104.3869 288° West 134 154 12,500  Descending Albuquerque Center
05:10PM 36.5289 -104.4408 287° West 138 159 12,600 60 Climbing Albuquerque Center
05:11PM 36.5406 -104.4836 289° West 134 154 12,700 180 Climbing Albuquerque Center
05:12PM 36.5522 -104.5286 288° West 135 155 13,000 240 Climbing Albuquerque Center
05:13PM 36.5656 -104.5711 291° West 133 153 13,300 240 Climbing Albuquerque Center
05:14PM 36.5781 -104.6039 295° West 115 132 13,500 240 Climbing Albuquerque Center
05:15PM 36.5869 -104.6403 287° West 109 125 13,800 240 Climbing Albuquerque Center
05:16PM 36.5950 -104.6744 286° West 105 121 14,100 300 Climbing Albuquerque Center
05:17PM 36.6081 -104.7108 294° West 100 115 14,500 240 Climbing Albuquerque Center
05:18PM 36.6197 -104.7414 295° West 97 112 14,600  Climbing Albuquerque Center
05:19PM 36.6303 -104.7875 286° West 122 140 14,500 -60 Descending Albuquerque Center
05:20PM 36.6408 -104.8319 287° West 134 154 14,500  Level Albuquerque Center
05:21PM 36.6533 -104.8781 289° West 139 160 14,600  Climbing Albuquerque Center
05:22PM 36.6658 -104.9222 289° West 136 157 14,600 -60 Level Albuquerque Center
05:23PM 36.6772 -104.9694 287° West 139 160 14,500  Descending Albuquerque Center
05:24PM 36.6914 -105.0231 288° West 138 159 14,600  Climbing Albuquerque Center
05:25PM 36.7083 -105.0694 295° West 144 166 14,500 -60 Descending Albuquerque Center
05:26PM 36.7261 -105.1122 297° West 145 167 14,500  Level Albuquerque Center
05:27PM 36.7475 -105.1647 297° West 151 174 14,500  Level Albuquerque Center
05:28PM 36.7664 -105.2014 303° West 138 159 14,500  Level Albuquerque Center
05:29PM 36.7822 -105.2464 294° West 128 147 14,500  Level Albuquerque Center
05:30PM 36.8011 -105.2850 301° West 133 153 14,500  Level Albuquerque Center
05:31PM 36.8183 -105.3225 300° West 133 153 14,500  Level Albuquerque Center
05:32PM 36.8367 -105.3706 295° West 137 158 14,500  Level Albuquerque Center
05:33PM 36.8567 -105.4078 304° West 136 157 14,500  Level Albuquerque Center
05:35PM 36.8844 -105.4636 302° West 138 159 14,500  Level Denver Center
05:36PM 36.9067 -105.5078 302° West 138 159 14,500  Level Denver Center
05:37PM 36.9264 -105.5525 299° West 137 158 14,500  Level Denver Center
05:39PM 36.9560 -105.6180 299° West  Level Estimated
05:46PM 37.0718 -105.8757 299° West  Level Estimated
05:47PM 37.0883 -105.9126 299° West  Level Estimated
05:48PM 37.1048 -105.9495 299° West  Level Estimated
05:49PM 37.1213 -105.9864 299° West  Level Estimated
05:50PM 37.1377 -106.0234 299° West  Level Estimated
05:51PM 37.1542 -106.0603 299° West  Level Estimated
05:52PM 37.1706 -106.0973 299° West  Level Estimated
05:53PM 37.1871 -106.1343 299° West  Level Estimated
05:54PM 37.2035 -106.1712 299° West  Level Estimated
05:55PM 37.2199 -106.2083 299° West  Level Estimated
05:56PM 37.2363 -106.2453 299° West  Level Estimated
05:57PM 37.2527 -106.2823 299° West  Level Estimated
05:58PM 37.2690 -106.3194 299° West  Level Estimated
05:59PM 37.2854 -106.3565 299° West  Level Estimated
06:00PM 37.3018 -106.3936 299° West  Level Estimated
06:01PM 37.3181 -106.4307 299° West  Level Estimated
06:02PM 37.3344 -106.4678 299° West  Level Estimated
06:03PM 37.3507 -106.5049 299° West  Level Estimated
06:04PM 37.3670 -106.5421 299° West  Level Estimated
06:05PM 37.3833 -106.5793 299° West  Level Estimated
06:06PM 37.3996 -106.6164 299° West  Level Estimated
06:07PM 37.4159 -106.6536 299° West  Level Estimated
06:08PM 37.4321 -106.6909 299° West  Level Estimated
06:09PM 37.4484 -106.7281 299° West  Level Estimated
06:10PM 37.4646 -106.7654 299° West  Level Estimated
06:11PM 37.4808 -106.8026 299° West  Level Estimated
06:12PM 37.4971 -106.8399 299° West  Level Estimated
06:13PM 37.5132 -106.8772 299° West  Level Estimated
06:14PM 37.5294 -106.9145 299° West  Level Estimated
06:15PM 37.5456 -106.9519 299° West  Level Estimated
06:16PM 37.5618 -106.9892 299° West  Level Estimated
06:17PM 37.5779 -107.0266 299° West  Level Estimated
06:18PM 37.5941 -107.0640 299° West  Level Estimated
06:19PM 37.6102 -107.1014 299° West  Level Estimated
06:20PM 37.6263 -107.1388 299° West  Level Estimated
06:21PM 37.6424 -107.1762 299° West  Level Estimated
06:22PM 37.6585 -107.2137 299° West  Level Estimated
06:23PM 37.6746 -107.2511 298° West  Level Estimated
06:24PM 37.6907 -107.2886 298° West  Level Estimated
06:24PM 37.8010 -107.5360 298° West 134 154 15,500  Level FlightAware
06:24PM 37.8070 -107.5600 288° West 140 161 15,500  Level FlightAware
06:25PM 37.8130 -107.5900 284° West 140 161 15,500  Level FlightAware
06:26PM 37.8170 -107.6160 281° West 150 173 15,500  Level FlightAware
06:26PM 37.8210 -107.6460 280° West 145 167 15,500  Level FlightAware
06:27PM 37.8250 -107.6800 278° West 155 178 15,500  Level FlightAware
06:27PM 37.8270 -107.7060 276° West 156 180 15,500  Level FlightAware
06:28PM 37.8300 -107.7340 278° West 156 180 15,500  Level FlightAware
06:29PM 37.8320 -107.7620 275° West 156 180 15,500  Level FlightAware
06:29PM 37.8340 -107.7910 275° West 156 180 15,500  Level FlightAware
06:30PM 37.8360 -107.8190 275° West 156 180 15,500  Level FlightAware
06:30PM 37.8390 -107.8470 278° West 156 180 15,500  Level FlightAware
06:33PM 37.9037 -107.8818 337° Northwest  Level Estimated
06:34PM 37.9347 -107.8985 337° Northwest  Level Estimated
06:35PM 37.9538 -107.9088 337° Northwest  Level Estimated
06:36PM 37.9538 -107.9088 180° South  Level Estimated
06:37PM 37.9538 -107.9088 180° South  Level Estimated
06:38PM 37.9538 -107.9088 180° South  Level Estimated
06:39PM 37.9538 -107.9088 180° South  Level Estimated
06:40PM 37.9538 -107.9088 180° South  Level Estimated
06:41PM 37.9538 -107.9088 180° South  Level Estimated
06:42PM 37.9538 -107.9088 180° South  Level Estimated
06:43PM 37.9538 -107.9088 180° South  Level Estimated
06:44PM 37.9538 -107.9088 180° South  Level Estimated
06:45PM 37.9538 -107.9088 180° South  Level Estimated
06:46PM 37.9538 -107.9088 180° South  Level Estimated
06:47PM 37.9538 -107.9088 180° South  Level Estimated
06:48PM 37.9538 -107.9088 180° South  Level Estimated
06:49PM 37.9538 -107.9088 180° South  Level Estimated
06:50PM 37.9538 -107.9088 180° South  Level Estimated
06:51PM 37.9538 -107.9088 180° South  Level Estimated
06:52PM 37.9538 -107.9088 180° South  Level Estimated